sensor_id;sensor_type;location;lat;lon;timestamp;P1;durP1;ratioP1;P2;durP2;ratioP2
65315;SDS011;51920;53.952;10.292;2023-06-22T00:01:18;4.38;;;3.35;;
65315;SDS011;51920;53.952;10.292;2023-06-22T00:03:45;4.00;;;3.38;;
65315;SDS011;51920;53.952;10.292;2023-06-22T00:06:12;4.25;;;3.17;;
65315;SDS011;51920;53.952;10.292;2023-06-22T00:08:39;4.65;;;3.40;;
65315;SDS011;51920;53.952;10.292;2023-06-22T00:11:06;4.20;;;3.10;;
65315;SDS011;51920;53.952;10.292;2023-06-22T00:13:33;4.20;;;2.97;;
65315;SDS011;51920;53.952;10.292;2023-06-22T00:15:59;3.70;;;3.10;;
65315;SDS011;51920;53.952;10.292;2023-06-22T00:18:26;4.53;;;3.20;;
65315;SDS011;51920;53.952;10.292;2023-06-22T00:20:54;4.30;;;3.10;;
65315;SDS011;51920;53.952;10.292;2023-06-22T00:23:25;3.90;;;3.10;;
65315;SDS011;51920;53.952;10.292;2023-06-22T00:25:52;4.18;;;3.30;;
65315;SDS011;51920;53.952;10.292;2023-06-22T00:28:19;5.22;;;3.22;;
65315;SDS011;51920;53.952;10.292;2023-06-22T00:30:46;4.70;;;3.40;;
65315;SDS011;51920;53.952;10.292;2023-06-22T00:33:13;4.88;;;3.38;;
65315;SDS011;51920;53.952;10.292;2023-06-22T00:35:40;4.70;;;3.47;;
65315;SDS011;51920;53.952;10.292;2023-06-22T00:38:08;4.72;;;3.45;;
65315;SDS011;51920;53.952;10.292;2023-06-22T00:40:35;4.80;;;3.45;;
65315;SDS011;51920;53.952;10.292;2023-06-22T00:43:02;5.35;;;3.50;;
65315;SDS011;51920;53.952;10.292;2023-06-22T00:45:29;4.20;;;3.58;;
65315;SDS011;51920;53.952;10.292;2023-06-22T00:47:57;4.23;;;3.50;;
65315;SDS011;51920;53.952;10.292;2023-06-22T00:50:25;3.95;;;3.30;;
65315;SDS011;51920;53.952;10.292;2023-06-22T00:52:56;4.30;;;3.40;;
65315;SDS011;51920;53.952;10.292;2023-06-22T00:55:25;5.00;;;3.60;;
65315;SDS011;51920;53.952;10.292;2023-06-22T00:57:55;6.07;;;3.90;;
65315;SDS011;51920;53.952;10.292;2023-06-22T01:00:25;4.73;;;3.50;;
65315;SDS011;51920;53.952;10.292;2023-06-22T01:02:52;4.53;;;3.42;;
65315;SDS011;51920;53.952;10.292;2023-06-22T01:05:21;5.03;;;3.67;;
65315;SDS011;51920;53.952;10.292;2023-06-22T01:10:23;4.40;;;3.35;;
65315;SDS011;51920;53.952;10.292;2023-06-22T01:13:04;5.30;;;3.80;;
65315;SDS011;51920;53.952;10.292;2023-06-22T01:15:38;4.43;;;3.60;;
65315;SDS011;51920;53.952;10.292;2023-06-22T01:18:08;5.40;;;4.00;;
65315;SDS011;51920;53.952;10.292;2023-06-22T01:20:35;5.63;;;3.97;;
65315;SDS011;51920;53.952;10.292;2023-06-22T01:29:04;5.30;;;3.80;;
65315;SDS011;51920;53.952;10.292;2023-06-22T01:31:32;4.57;;;3.78;;
65315;SDS011;51920;53.952;10.292;2023-06-22T01:34:03;5.13;;;3.90;;
65315;SDS011;51920;53.952;10.292;2023-06-22T01:36:31;5.00;;;3.97;;
65315;SDS011;51920;53.952;10.292;2023-06-22T01:38:59;5.00;;;4.07;;
65315;SDS011;51920;53.952;10.292;2023-06-22T01:41:28;4.78;;;3.60;;
65315;SDS011;51920;53.952;10.292;2023-06-22T01:43:56;5.15;;;3.90;;
65315;SDS011;51920;53.952;10.292;2023-06-22T01:46:23;5.88;;;4.10;;
65315;SDS011;51920;53.952;10.292;2023-06-22T01:48:50;5.13;;;4.32;;
65315;SDS011;51920;53.952;10.292;2023-06-22T01:51:17;6.07;;;4.13;;
65315;SDS011;51920;53.952;10.292;2023-06-22T01:53:44;5.28;;;4.00;;
65315;SDS011;51920;53.952;10.292;2023-06-22T01:56:11;5.38;;;4.07;;
65315;SDS011;51920;53.952;10.292;2023-06-22T02:01:26;5.55;;;3.83;;
65315;SDS011;51920;53.952;10.292;2023-06-22T02:04:02;5.10;;;4.00;;
65315;SDS011;51920;53.952;10.292;2023-06-22T02:06:36;6.20;;;4.05;;
65315;SDS011;51920;53.952;10.292;2023-06-22T02:09:08;6.43;;;4.30;;
65315;SDS011;51920;53.952;10.292;2023-06-22T02:11:39;6.07;;;4.20;;
65315;SDS011;51920;53.952;10.292;2023-06-22T02:14:08;4.72;;;4.20;;
65315;SDS011;51920;53.952;10.292;2023-06-22T02:16:35;5.50;;;4.40;;
65315;SDS011;51920;53.952;10.292;2023-06-22T02:19:02;5.55;;;4.25;;
65315;SDS011;51920;53.952;10.292;2023-06-22T02:21:32;5.75;;;4.50;;
65315;SDS011;51920;53.952;10.292;2023-06-22T02:24:00;6.03;;;4.65;;
65315;SDS011;51920;53.952;10.292;2023-06-22T02:26:29;5.68;;;4.47;;
65315;SDS011;51920;53.952;10.292;2023-06-22T02:28:57;4.93;;;3.90;;
65315;SDS011;51920;53.952;10.292;2023-06-22T02:31:23;5.53;;;4.40;;
65315;SDS011;51920;53.952;10.292;2023-06-22T02:33:57;4.80;;;4.05;;
65315;SDS011;51920;53.952;10.292;2023-06-22T02:36:25;5.82;;;4.47;;
65315;SDS011;51920;53.952;10.292;2023-06-22T02:38:53;5.50;;;4.20;;
65315;SDS011;51920;53.952;10.292;2023-06-22T02:41:22;6.53;;;4.60;;
65315;SDS011;51920;53.952;10.292;2023-06-22T02:43:49;6.15;;;4.50;;
65315;SDS011;51920;53.952;10.292;2023-06-22T02:46:18;6.05;;;4.50;;
65315;SDS011;51920;53.952;10.292;2023-06-22T02:48:45;8.27;;;4.78;;
65315;SDS011;51920;53.952;10.292;2023-06-22T02:51:12;7.25;;;4.85;;
65315;SDS011;51920;53.952;10.292;2023-06-22T02:53:38;6.37;;;5.00;;
65315;SDS011;51920;53.952;10.292;2023-06-22T02:56:05;5.68;;;4.45;;
65315;SDS011;51920;53.952;10.292;2023-06-22T02:58:35;7.85;;;4.70;;
65315;SDS011;51920;53.952;10.292;2023-06-22T03:01:08;5.50;;;4.07;;
65315;SDS011;51920;53.952;10.292;2023-06-22T03:03:36;6.10;;;4.80;;
65315;SDS011;51920;53.952;10.292;2023-06-22T03:06:03;6.47;;;4.70;;
65315;SDS011;51920;53.952;10.292;2023-06-22T03:08:30;5.60;;;4.32;;
65315;SDS011;51920;53.952;10.292;2023-06-22T03:10:57;6.85;;;4.50;;
65315;SDS011;51920;53.952;10.292;2023-06-22T03:13:23;5.72;;;3.90;;
65315;SDS011;51920;53.952;10.292;2023-06-22T03:15:50;6.35;;;4.38;;
65315;SDS011;51920;53.952;10.292;2023-06-22T03:18:17;4.90;;;3.90;;
65315;SDS011;51920;53.952;10.292;2023-06-22T03:20:43;5.50;;;4.20;;
65315;SDS011;51920;53.952;10.292;2023-06-22T03:23:10;5.45;;;4.13;;
65315;SDS011;51920;53.952;10.292;2023-06-22T03:25:37;5.88;;;4.47;;
65315;SDS011;51920;53.952;10.292;2023-06-22T03:28:04;5.60;;;4.45;;
65315;SDS011;51920;53.952;10.292;2023-06-22T03:30:30;4.80;;;4.00;;
65315;SDS011;51920;53.952;10.292;2023-06-22T03:32:59;6.07;;;4.47;;
65315;SDS011;51920;53.952;10.292;2023-06-22T03:35:26;6.35;;;4.50;;
65315;SDS011;51920;53.952;10.292;2023-06-22T03:37:52;5.63;;;4.30;;
65315;SDS011;51920;53.952;10.292;2023-06-22T03:40:19;5.97;;;4.20;;
65315;SDS011;51920;53.952;10.292;2023-06-22T03:42:46;5.70;;;4.10;;
65315;SDS011;51920;53.952;10.292;2023-06-22T03:45:13;6.55;;;4.22;;
65315;SDS011;51920;53.952;10.292;2023-06-22T03:47:40;5.80;;;4.63;;
65315;SDS011;51920;53.952;10.292;2023-06-22T03:50:07;5.85;;;4.07;;
65315;SDS011;51920;53.952;10.292;2023-06-22T03:52:34;5.68;;;4.00;;
65315;SDS011;51920;53.952;10.292;2023-06-22T03:55:01;6.07;;;4.63;;
65315;SDS011;51920;53.952;10.292;2023-06-22T03:57:28;7.72;;;4.53;;
65315;SDS011;51920;53.952;10.292;2023-06-22T03:59:56;5.75;;;4.18;;
65315;SDS011;51920;53.952;10.292;2023-06-22T04:02:23;8.25;;;4.70;;
65315;SDS011;51920;53.952;10.292;2023-06-22T04:04:50;5.15;;;4.43;;
65315;SDS011;51920;53.952;10.292;2023-06-22T04:07:16;6.57;;;4.37;;
65315;SDS011;51920;53.952;10.292;2023-06-22T04:09:44;7.07;;;4.35;;
65315;SDS011;51920;53.952;10.292;2023-06-22T04:12:10;5.65;;;4.70;;
65315;SDS011;51920;53.952;10.292;2023-06-22T04:14:37;7.05;;;4.20;;
65315;SDS011;51920;53.952;10.292;2023-06-22T04:17:04;5.68;;;4.10;;
65315;SDS011;51920;53.952;10.292;2023-06-22T04:19:31;5.50;;;4.10;;
65315;SDS011;51920;53.952;10.292;2023-06-22T04:21:57;6.10;;;4.40;;
65315;SDS011;51920;53.952;10.292;2023-06-22T04:24:24;5.45;;;4.32;;
65315;SDS011;51920;53.952;10.292;2023-06-22T04:26:50;6.57;;;4.82;;
65315;SDS011;51920;53.952;10.292;2023-06-22T04:29:21;6.30;;;4.60;;
65315;SDS011;51920;53.952;10.292;2023-06-22T04:31:56;7.63;;;5.17;;
65315;SDS011;51920;53.952;10.292;2023-06-22T04:34:25;7.65;;;5.50;;
65315;SDS011;51920;53.952;10.292;2023-06-22T04:36:52;7.00;;;4.95;;
65315;SDS011;51920;53.952;10.292;2023-06-22T04:39:19;8.35;;;5.32;;
65315;SDS011;51920;53.952;10.292;2023-06-22T04:41:45;8.25;;;5.38;;
65315;SDS011;51920;53.952;10.292;2023-06-22T04:44:16;7.13;;;5.27;;
65315;SDS011;51920;53.952;10.292;2023-06-22T04:49:50;6.78;;;4.93;;
65315;SDS011;51920;53.952;10.292;2023-06-22T04:52:17;7.80;;;5.60;;
65315;SDS011;51920;53.952;10.292;2023-06-22T04:54:44;10.18;;;6.00;;
65315;SDS011;51920;53.952;10.292;2023-06-22T04:57:21;9.37;;;5.40;;
65315;SDS011;51920;53.952;10.292;2023-06-22T04:59:57;8.85;;;5.90;;
65315;SDS011;51920;53.952;10.292;2023-06-22T05:02:23;8.20;;;5.60;;
65315;SDS011;51920;53.952;10.292;2023-06-22T05:04:54;8.48;;;5.70;;
65315;SDS011;51920;53.952;10.292;2023-06-22T05:07:23;7.57;;;5.93;;
65315;SDS011;51920;53.952;10.292;2023-06-22T05:09:51;9.00;;;5.57;;
65315;SDS011;51920;53.952;10.292;2023-06-22T05:12:18;8.38;;;6.50;;
65315;SDS011;51920;53.952;10.292;2023-06-22T05:14:44;7.50;;;5.70;;
65315;SDS011;51920;53.952;10.292;2023-06-22T05:17:11;7.18;;;5.32;;
65315;SDS011;51920;53.952;10.292;2023-06-22T05:19:41;8.45;;;5.47;;
65315;SDS011;51920;53.952;10.292;2023-06-22T05:22:15;7.60;;;5.20;;
65315;SDS011;51920;53.952;10.292;2023-06-22T05:24:42;11.05;;;6.03;;
65315;SDS011;51920;53.952;10.292;2023-06-22T05:27:10;7.03;;;5.10;;
65315;SDS011;51920;53.952;10.292;2023-06-22T05:29:37;6.95;;;4.82;;
65315;SDS011;51920;53.952;10.292;2023-06-22T05:32:04;7.72;;;5.45;;
65315;SDS011;51920;53.952;10.292;2023-06-22T05:34:31;6.23;;;4.40;;
65315;SDS011;51920;53.952;10.292;2023-06-22T05:36:58;7.32;;;4.70;;
65315;SDS011;51920;53.952;10.292;2023-06-22T05:39:27;6.32;;;4.85;;
65315;SDS011;51920;53.952;10.292;2023-06-22T05:41:54;7.38;;;4.72;;
65315;SDS011;51920;53.952;10.292;2023-06-22T05:44:21;7.75;;;5.25;;
65315;SDS011;51920;53.952;10.292;2023-06-22T05:46:48;7.47;;;5.00;;
65315;SDS011;51920;53.952;10.292;2023-06-22T05:49:15;7.53;;;4.80;;
65315;SDS011;51920;53.952;10.292;2023-06-22T05:51:42;7.35;;;4.75;;
65315;SDS011;51920;53.952;10.292;2023-06-22T05:54:09;6.75;;;4.40;;
65315;SDS011;51920;53.952;10.292;2023-06-22T05:56:36;6.28;;;4.10;;
65315;SDS011;51920;53.952;10.292;2023-06-22T05:59:03;5.37;;;4.10;;
65315;SDS011;51920;53.952;10.292;2023-06-22T06:01:30;6.43;;;4.18;;
65315;SDS011;51920;53.952;10.292;2023-06-22T06:04:01;4.88;;;3.67;;
65315;SDS011;51920;53.952;10.292;2023-06-22T06:06:30;6.40;;;4.30;;
65315;SDS011;51920;53.952;10.292;2023-06-22T06:08:57;5.90;;;4.18;;
65315;SDS011;51920;53.952;10.292;2023-06-22T06:11:23;6.40;;;4.50;;
65315;SDS011;51920;53.952;10.292;2023-06-22T06:13:51;6.80;;;4.90;;
65315;SDS011;51920;53.952;10.292;2023-06-22T06:16:17;7.80;;;4.75;;
65315;SDS011;51920;53.952;10.292;2023-06-22T06:18:44;6.68;;;4.60;;
65315;SDS011;51920;53.952;10.292;2023-06-22T06:21:11;6.97;;;4.30;;
65315;SDS011;51920;53.952;10.292;2023-06-22T06:23:37;7.40;;;4.70;;
65315;SDS011;51920;53.952;10.292;2023-06-22T06:26:04;7.15;;;4.80;;
65315;SDS011;51920;53.952;10.292;2023-06-22T06:28:34;6.07;;;4.50;;
65315;SDS011;51920;53.952;10.292;2023-06-22T06:31:01;5.80;;;4.40;;
65315;SDS011;51920;53.952;10.292;2023-06-22T06:33:28;7.03;;;4.32;;
65315;SDS011;51920;53.952;10.292;2023-06-22T06:35:55;6.53;;;4.40;;
65315;SDS011;51920;53.952;10.292;2023-06-22T06:38:22;7.65;;;4.25;;
65315;SDS011;51920;53.952;10.292;2023-06-22T06:40:49;6.82;;;4.60;;
65315;SDS011;51920;53.952;10.292;2023-06-22T06:43:16;6.13;;;4.40;;
65315;SDS011;51920;53.952;10.292;2023-06-22T06:45:43;5.82;;;4.13;;
65315;SDS011;51920;53.952;10.292;2023-06-22T06:48:10;5.20;;;3.67;;
65315;SDS011;51920;53.952;10.292;2023-06-22T06:50:37;5.45;;;3.40;;
65315;SDS011;51920;53.952;10.292;2023-06-22T06:53:04;4.70;;;3.65;;
65315;SDS011;51920;53.952;10.292;2023-06-22T06:55:31;5.85;;;3.25;;
65315;SDS011;51920;53.952;10.292;2023-06-22T06:57:59;4.70;;;3.40;;
65315;SDS011;51920;53.952;10.292;2023-06-22T07:00:26;5.90;;;3.30;;
65315;SDS011;51920;53.952;10.292;2023-06-22T07:02:53;4.05;;;3.20;;
65315;SDS011;51920;53.952;10.292;2023-06-22T07:05:20;5.35;;;3.03;;
65315;SDS011;51920;53.952;10.292;2023-06-22T07:07:47;3.97;;;2.80;;
65315;SDS011;51920;53.952;10.292;2023-06-22T07:10:14;4.18;;;2.47;;
65315;SDS011;51920;53.952;10.292;2023-06-22T07:12:42;3.27;;;2.40;;
65315;SDS011;51920;53.952;10.292;2023-06-22T07:15:09;8.48;;;2.83;;
65315;SDS011;51920;53.952;10.292;2023-06-22T07:17:37;6.03;;;2.50;;
65315;SDS011;51920;53.952;10.292;2023-06-22T07:20:04;3.30;;;2.40;;
65315;SDS011;51920;53.952;10.292;2023-06-22T07:22:39;4.78;;;2.45;;
65315;SDS011;51920;53.952;10.292;2023-06-22T07:25:06;4.33;;;2.33;;
65315;SDS011;51920;53.952;10.292;2023-06-22T07:27:44;5.43;;;2.50;;
65315;SDS011;51920;53.952;10.292;2023-06-22T07:30:32;4.43;;;2.50;;
65315;SDS011;51920;53.952;10.292;2023-06-22T07:33:00;3.33;;;2.10;;
65315;SDS011;51920;53.952;10.292;2023-06-22T07:35:30;4.25;;;2.28;;
65315;SDS011;51920;53.952;10.292;2023-06-22T07:37:57;8.20;;;2.43;;
65315;SDS011;51920;53.952;10.292;2023-06-22T07:40:25;4.57;;;2.38;;
65315;SDS011;51920;53.952;10.292;2023-06-22T07:42:52;4.20;;;3.03;;
65315;SDS011;51920;53.952;10.292;2023-06-22T07:45:20;4.32;;;2.50;;
65315;SDS011;51920;53.952;10.292;2023-06-22T07:47:47;4.38;;;2.40;;
65315;SDS011;51920;53.952;10.292;2023-06-22T07:50:14;3.20;;;2.30;;
65315;SDS011;51920;53.952;10.292;2023-06-22T07:52:41;2.85;;;2.20;;
65315;SDS011;51920;53.952;10.292;2023-06-22T07:55:08;3.80;;;2.40;;
65315;SDS011;51920;53.952;10.292;2023-06-22T07:57:35;2.90;;;2.10;;
65315;SDS011;51920;53.952;10.292;2023-06-22T08:00:03;2.53;;;1.98;;
65315;SDS011;51920;53.952;10.292;2023-06-22T08:02:39;3.73;;;2.20;;
65315;SDS011;51920;53.952;10.292;2023-06-22T08:05:10;2.90;;;1.80;;
65315;SDS011;51920;53.952;10.292;2023-06-22T08:07:45;3.15;;;2.10;;
65315;SDS011;51920;53.952;10.292;2023-06-22T08:10:13;2.70;;;1.73;;
65315;SDS011;51920;53.952;10.292;2023-06-22T08:12:40;4.20;;;1.98;;
65315;SDS011;51920;53.952;10.292;2023-06-22T08:15:07;2.33;;;1.70;;
65315;SDS011;51920;53.952;10.292;2023-06-22T08:17:36;2.60;;;2.03;;
65315;SDS011;51920;53.952;10.292;2023-06-22T08:20:04;2.22;;;1.83;;
65315;SDS011;51920;53.952;10.292;2023-06-22T08:22:36;2.00;;;1.80;;
65315;SDS011;51920;53.952;10.292;2023-06-22T08:25:03;2.33;;;1.75;;
65315;SDS011;51920;53.952;10.292;2023-06-22T08:27:30;2.97;;;2.00;;
65315;SDS011;51920;53.952;10.292;2023-06-22T08:30:01;3.28;;;1.77;;
65315;SDS011;51920;53.952;10.292;2023-06-22T08:32:28;1.90;;;1.65;;
65315;SDS011;51920;53.952;10.292;2023-06-22T08:34:56;2.50;;;1.77;;
65315;SDS011;51920;53.952;10.292;2023-06-22T08:37:23;2.10;;;1.70;;
65315;SDS011;51920;53.952;10.292;2023-06-22T08:39:58;3.23;;;2.03;;
65315;SDS011;51920;53.952;10.292;2023-06-22T08:42:26;2.70;;;1.83;;
65315;SDS011;51920;53.952;10.292;2023-06-22T08:44:53;2.13;;;1.63;;
65315;SDS011;51920;53.952;10.292;2023-06-22T08:47:20;2.45;;;1.70;;
65315;SDS011;51920;53.952;10.292;2023-06-22T08:49:47;2.00;;;1.50;;
65315;SDS011;51920;53.952;10.292;2023-06-22T08:52:15;2.87;;;1.73;;
65315;SDS011;51920;53.952;10.292;2023-06-22T08:54:42;3.28;;;1.70;;
65315;SDS011;51920;53.952;10.292;2023-06-22T08:57:09;2.75;;;1.80;;
65315;SDS011;51920;53.952;10.292;2023-06-22T08:59:36;3.00;;;1.63;;
65315;SDS011;51920;53.952;10.292;2023-06-22T09:02:03;4.18;;;1.70;;
65315;SDS011;51920;53.952;10.292;2023-06-22T09:04:30;2.93;;;1.70;;
65315;SDS011;51920;53.952;10.292;2023-06-22T09:07:01;3.13;;;1.83;;
65315;SDS011;51920;53.952;10.292;2023-06-22T09:09:28;2.60;;;1.80;;
65315;SDS011;51920;53.952;10.292;2023-06-22T09:11:56;2.80;;;1.85;;
65315;SDS011;51920;53.952;10.292;2023-06-22T09:14:22;4.78;;;1.85;;
65315;SDS011;51920;53.952;10.292;2023-06-22T09:16:49;1.97;;;1.60;;
65315;SDS011;51920;53.952;10.292;2023-06-22T09:19:16;3.28;;;1.80;;
65315;SDS011;51920;53.952;10.292;2023-06-22T09:21:43;2.20;;;1.60;;
65315;SDS011;51920;53.952;10.292;2023-06-22T09:24:10;2.20;;;1.77;;
65315;SDS011;51920;53.952;10.292;2023-06-22T09:26:37;2.75;;;1.67;;
65315;SDS011;51920;53.952;10.292;2023-06-22T09:29:07;2.03;;;1.70;;
65315;SDS011;51920;53.952;10.292;2023-06-22T09:31:33;3.10;;;1.80;;
65315;SDS011;51920;53.952;10.292;2023-06-22T09:34:00;2.05;;;1.70;;
65315;SDS011;51920;53.952;10.292;2023-06-22T09:36:27;3.20;;;1.80;;
65315;SDS011;51920;53.952;10.292;2023-06-22T09:38:53;2.67;;;1.75;;
65315;SDS011;51920;53.952;10.292;2023-06-22T09:41:25;1.90;;;1.60;;
65315;SDS011;51920;53.952;10.292;2023-06-22T09:43:52;2.65;;;1.80;;
65315;SDS011;51920;53.952;10.292;2023-06-22T09:46:21;2.30;;;1.67;;
65315;SDS011;51920;53.952;10.292;2023-06-22T09:48:51;2.30;;;1.70;;
65315;SDS011;51920;53.952;10.292;2023-06-22T09:51:19;2.42;;;1.80;;
65315;SDS011;51920;53.952;10.292;2023-06-22T09:53:48;2.43;;;1.50;;
65315;SDS011;51920;53.952;10.292;2023-06-22T09:56:15;1.98;;;1.67;;
65315;SDS011;51920;53.952;10.292;2023-06-22T09:58:44;2.10;;;1.70;;
65315;SDS011;51920;53.952;10.292;2023-06-22T10:01:12;2.30;;;1.60;;
65315;SDS011;51920;53.952;10.292;2023-06-22T10:03:41;2.42;;;1.70;;
65315;SDS011;51920;53.952;10.292;2023-06-22T10:06:08;2.40;;;1.60;;
65315;SDS011;51920;53.952;10.292;2023-06-22T10:08:35;3.35;;;1.80;;
65315;SDS011;51920;53.952;10.292;2023-06-22T10:11:03;3.00;;;1.92;;
65315;SDS011;51920;53.952;10.292;2023-06-22T10:13:30;3.05;;;1.75;;
65315;SDS011;51920;53.952;10.292;2023-06-22T10:15:57;3.53;;;1.98;;
65315;SDS011;51920;53.952;10.292;2023-06-22T10:18:24;3.53;;;1.80;;
65315;SDS011;51920;53.952;10.292;2023-06-22T10:20:51;2.25;;;1.70;;
65315;SDS011;51920;53.952;10.292;2023-06-22T10:23:19;2.60;;;1.90;;
65315;SDS011;51920;53.952;10.292;2023-06-22T10:25:46;3.22;;;1.98;;
65315;SDS011;51920;53.952;10.292;2023-06-22T10:28:14;4.53;;;2.03;;
65315;SDS011;51920;53.952;10.292;2023-06-22T10:30:41;3.00;;;2.10;;
65315;SDS011;51920;53.952;10.292;2023-06-22T10:33:09;3.03;;;2.28;;
65315;SDS011;51920;53.952;10.292;2023-06-22T10:35:37;2.58;;;2.08;;
65315;SDS011;51920;53.952;10.292;2023-06-22T10:38:04;3.30;;;2.30;;
65315;SDS011;51920;53.952;10.292;2023-06-22T10:40:32;3.97;;;2.17;;
65315;SDS011;51920;53.952;10.292;2023-06-22T10:42:59;3.50;;;2.60;;
65315;SDS011;51920;53.952;10.292;2023-06-22T10:45:25;2.83;;;2.38;;
65315;SDS011;51920;53.952;10.292;2023-06-22T10:47:53;3.35;;;2.58;;
65315;SDS011;51920;53.952;10.292;2023-06-22T10:50:20;5.32;;;2.53;;
65315;SDS011;51920;53.952;10.292;2023-06-22T10:52:47;3.85;;;2.40;;
65315;SDS011;51920;53.952;10.292;2023-06-22T10:55:14;3.57;;;2.53;;
65315;SDS011;51920;53.952;10.292;2023-06-22T10:57:41;3.65;;;2.60;;
65315;SDS011;51920;53.952;10.292;2023-06-22T11:00:13;3.30;;;2.80;;
65315;SDS011;51920;53.952;10.292;2023-06-22T11:02:42;3.72;;;2.60;;
65315;SDS011;51920;53.952;10.292;2023-06-22T11:05:09;3.03;;;2.25;;
65315;SDS011;51920;53.952;10.292;2023-06-22T11:07:37;3.70;;;2.30;;
65315;SDS011;51920;53.952;10.292;2023-06-22T11:10:09;4.40;;;2.35;;
65315;SDS011;51920;53.952;10.292;2023-06-22T11:12:37;6.22;;;2.80;;
65315;SDS011;51920;53.952;10.292;2023-06-22T11:15:04;3.15;;;2.40;;
65315;SDS011;51920;53.952;10.292;2023-06-22T11:17:31;4.18;;;2.80;;
65315;SDS011;51920;53.952;10.292;2023-06-22T11:19:58;3.47;;;2.60;;
65315;SDS011;51920;53.952;10.292;2023-06-22T11:22:26;4.20;;;2.47;;
65315;SDS011;51920;53.952;10.292;2023-06-22T11:24:53;3.40;;;2.20;;
65315;SDS011;51920;53.952;10.292;2023-06-22T11:27:22;4.00;;;2.30;;
65315;SDS011;51920;53.952;10.292;2023-06-22T11:29:48;4.07;;;2.60;;
65315;SDS011;51920;53.952;10.292;2023-06-22T11:32:16;2.93;;;2.40;;
65315;SDS011;51920;53.952;10.292;2023-06-22T11:34:42;3.38;;;2.42;;
65315;SDS011;51920;53.952;10.292;2023-06-22T11:37:09;3.33;;;2.50;;
65315;SDS011;51920;53.952;10.292;2023-06-22T11:39:36;2.83;;;2.50;;
65315;SDS011;51920;53.952;10.292;2023-06-22T11:42:03;3.15;;;2.38;;
65315;SDS011;51920;53.952;10.292;2023-06-22T11:44:30;3.27;;;2.53;;
65315;SDS011;51920;53.952;10.292;2023-06-22T11:46:57;3.10;;;2.80;;
65315;SDS011;51920;53.952;10.292;2023-06-22T11:49:24;3.25;;;2.83;;
65315;SDS011;51920;53.952;10.292;2023-06-22T11:51:50;5.15;;;2.58;;
65315;SDS011;51920;53.952;10.292;2023-06-22T11:54:17;4.70;;;2.90;;
65315;SDS011;51920;53.952;10.292;2023-06-22T11:56:43;3.40;;;3.00;;
65315;SDS011;51920;53.952;10.292;2023-06-22T11:59:10;3.95;;;3.33;;
65315;SDS011;51920;53.952;10.292;2023-06-22T12:01:37;5.20;;;3.95;;
65315;SDS011;51920;53.952;10.292;2023-06-22T12:04:03;4.05;;;3.60;;
65315;SDS011;51920;53.952;10.292;2023-06-22T12:06:32;4.78;;;3.45;;
65315;SDS011;51920;53.952;10.292;2023-06-22T12:08:59;4.63;;;3.37;;
65315;SDS011;51920;53.952;10.292;2023-06-22T12:11:26;3.83;;;3.10;;
65315;SDS011;51920;53.952;10.292;2023-06-22T12:13:52;5.35;;;3.70;;
65315;SDS011;51920;53.952;10.292;2023-06-22T12:16:19;5.15;;;3.45;;
65315;SDS011;51920;53.952;10.292;2023-06-22T12:18:47;4.78;;;3.40;;
65315;SDS011;51920;53.952;10.292;2023-06-22T12:21:14;4.57;;;3.00;;
65315;SDS011;51920;53.952;10.292;2023-06-22T12:23:41;3.72;;;3.20;;
65315;SDS011;51920;53.952;10.292;2023-06-22T12:26:07;4.28;;;3.42;;
65315;SDS011;51920;53.952;10.292;2023-06-22T12:28:34;5.38;;;3.53;;
65315;SDS011;51920;53.952;10.292;2023-06-22T12:31:01;4.00;;;3.03;;
65315;SDS011;51920;53.952;10.292;2023-06-22T12:33:27;5.00;;;3.50;;
65315;SDS011;51920;53.952;10.292;2023-06-22T12:35:54;3.53;;;3.22;;
65315;SDS011;51920;53.952;10.292;2023-06-22T12:38:21;4.50;;;3.53;;
65315;SDS011;51920;53.952;10.292;2023-06-22T12:40:47;4.82;;;3.55;;
65315;SDS011;51920;53.952;10.292;2023-06-22T12:43:15;4.55;;;3.80;;
65315;SDS011;51920;53.952;10.292;2023-06-22T12:45:42;5.40;;;3.70;;
65315;SDS011;51920;53.952;10.292;2023-06-22T12:48:08;4.45;;;3.80;;
65315;SDS011;51920;53.952;10.292;2023-06-22T12:50:35;4.53;;;3.90;;
65315;SDS011;51920;53.952;10.292;2023-06-22T12:53:02;4.40;;;3.40;;
65315;SDS011;51920;53.952;10.292;2023-06-22T12:55:30;5.07;;;3.95;;
65315;SDS011;51920;53.952;10.292;2023-06-22T12:57:57;4.10;;;3.70;;
65315;SDS011;51920;53.952;10.292;2023-06-22T13:00:23;4.55;;;3.13;;
65315;SDS011;51920;53.952;10.292;2023-06-22T13:02:50;3.88;;;3.40;;
65315;SDS011;51920;53.952;10.292;2023-06-22T13:05:17;4.72;;;3.55;;
65315;SDS011;51920;53.952;10.292;2023-06-22T13:07:44;4.43;;;3.80;;
65315;SDS011;51920;53.952;10.292;2023-06-22T13:10:12;5.13;;;3.70;;
65315;SDS011;51920;53.952;10.292;2023-06-22T13:12:38;4.45;;;3.60;;
65315;SDS011;51920;53.952;10.292;2023-06-22T13:15:05;4.88;;;3.67;;
65315;SDS011;51920;53.952;10.292;2023-06-22T13:17:32;4.50;;;3.65;;
65315;SDS011;51920;53.952;10.292;2023-06-22T13:19:59;5.28;;;3.90;;
65315;SDS011;51920;53.952;10.292;2023-06-22T13:24:57;4.47;;;3.50;;
65315;SDS011;51920;53.952;10.292;2023-06-22T13:27:25;5.00;;;4.20;;
65315;SDS011;51920;53.952;10.292;2023-06-22T13:29:52;4.22;;;3.75;;
65315;SDS011;51920;53.952;10.292;2023-06-22T13:32:19;5.13;;;3.80;;
65315;SDS011;51920;53.952;10.292;2023-06-22T13:34:45;5.20;;;3.80;;
65315;SDS011;51920;53.952;10.292;2023-06-22T13:37:12;4.20;;;3.80;;
65315;SDS011;51920;53.952;10.292;2023-06-22T13:39:38;5.18;;;3.90;;
65315;SDS011;51920;53.952;10.292;2023-06-22T13:42:05;5.35;;;4.00;;
65315;SDS011;51920;53.952;10.292;2023-06-22T13:44:32;5.03;;;4.10;;
65315;SDS011;51920;53.952;10.292;2023-06-22T13:46:59;4.93;;;4.00;;
65315;SDS011;51920;53.952;10.292;2023-06-22T13:49:26;5.70;;;4.28;;
65315;SDS011;51920;53.952;10.292;2023-06-22T13:51:53;5.75;;;4.32;;
65315;SDS011;51920;53.952;10.292;2023-06-22T13:54:19;5.63;;;4.55;;
65315;SDS011;51920;53.952;10.292;2023-06-22T13:56:49;5.72;;;4.18;;
65315;SDS011;51920;53.952;10.292;2023-06-22T13:59:16;5.60;;;4.17;;
65315;SDS011;51920;53.952;10.292;2023-06-22T14:01:42;4.13;;;3.63;;
65315;SDS011;51920;53.952;10.292;2023-06-22T14:04:09;4.45;;;3.83;;
65315;SDS011;51920;53.952;10.292;2023-06-22T14:06:37;5.25;;;3.75;;
65315;SDS011;51920;53.952;10.292;2023-06-22T14:09:04;4.68;;;3.90;;
65315;SDS011;51920;53.952;10.292;2023-06-22T14:11:31;4.13;;;3.30;;
65315;SDS011;51920;53.952;10.292;2023-06-22T14:13:57;5.40;;;3.40;;
65315;SDS011;51920;53.952;10.292;2023-06-22T14:16:24;5.30;;;3.08;;
65315;SDS011;51920;53.952;10.292;2023-06-22T14:18:50;4.32;;;2.95;;
65315;SDS011;51920;53.952;10.292;2023-06-22T14:21:18;3.55;;;2.80;;
65315;SDS011;51920;53.952;10.292;2023-06-22T14:23:45;3.67;;;2.90;;
65315;SDS011;51920;53.952;10.292;2023-06-22T14:26:15;3.80;;;2.80;;
65315;SDS011;51920;53.952;10.292;2023-06-22T14:28:45;4.15;;;2.90;;
65315;SDS011;51920;53.952;10.292;2023-06-22T14:31:14;4.53;;;3.20;;
65315;SDS011;51920;53.952;10.292;2023-06-22T14:33:50;4.40;;;3.17;;
65315;SDS011;51920;53.952;10.292;2023-06-22T14:36:17;5.20;;;3.10;;
65315;SDS011;51920;53.952;10.292;2023-06-22T14:38:44;3.28;;;2.97;;
65315;SDS011;51920;53.952;10.292;2023-06-22T14:41:10;6.45;;;3.38;;
65315;SDS011;51920;53.952;10.292;2023-06-22T14:43:42;4.68;;;3.17;;
65315;SDS011;51920;53.952;10.292;2023-06-22T14:46:10;3.67;;;3.13;;
65315;SDS011;51920;53.952;10.292;2023-06-22T14:48:37;5.47;;;3.00;;
65315;SDS011;51920;53.952;10.292;2023-06-22T14:51:03;3.67;;;3.03;;
65315;SDS011;51920;53.952;10.292;2023-06-22T14:53:30;4.20;;;3.47;;